Novi Sad, Serbia
Current Conditions -  °F | °C
As of 3:30 PM on Saturday 20 Dec 2014 (Local Time) from LYBT Reporting Station
Clear Clear  
Wind Chill: 54°   Ceiling: Unl
Heat Index: 54°   Visibility: 6mi
Dew Point: 39°   Wind: 12mph
Humidity: 58%   Direction: 340°NNW
Pressure: 30.21"   Gusts: NA
Location:  45.25°N, 19.85°E
Report Text: LYBT 201330Z 34010KT CAVOK 12/04 Q1023 NOSIG
Loading
Personal Weather Stations






























Interactive Weather Map New forecast layout! Learn more

10-Day Weather Forecast

Advertisements
Track Severe Weather on mobile